Time;durP1;ratioP1;P1;durP2;ratioP2;P2;SDS_P1;SDS_P2;PMS_P1;PMS_P2;Temp;Humidity;BMP_temperature;BMP_pressure;BME280_temperature;BME280_humidity;BME280_pressure;Samples;Min_cycle;Max_cycle;Signal;HPM_P1;HPM_P2
2024/04/15 00:02:23;;;;;;;2.97;2.20;;;;;;;16.71;63.52;96434.69;5419358;26;20003;-78
2024/04/15 00:04:53;;;;;;;2.47;2.28;;;;;;;16.70;63.88;96425.97;5419142;26;20004;-79
2024/04/15 00:07:19;;;;;;;3.30;2.33;;;;;;;16.68;63.91;96413.06;5413082;26;20011;-78
2024/04/15 00:09:49;;;;;;;4.05;2.35;;;;;;;16.65;63.95;96408.22;5419608;26;20350;-79
2024/04/15 00:12:18;;;;;;;3.22;2.13;;;;;;;16.63;64.66;96405.00;5419655;26;20332;-79
2024/04/15 00:14:48;;;;;;;3.75;2.33;;;;;;;16.60;64.54;96391.50;5426120;26;19992;-79
2024/04/15 00:17:15;;;;;;;3.40;2.40;;;;;;;16.57;64.58;96384.81;5441054;26;19996;-78
2024/04/15 00:19:44;;;;;;;2.50;2.17;;;;;;;16.51;64.82;96390.19;5440781;26;20014;-79
2024/04/15 00:22:11;;;;;;;2.95;2.40;;;;;;;16.44;65.06;96388.47;5435539;26;20003;-79
2024/04/15 00:24:40;;;;;;;5.95;2.38;;;;;;;16.40;65.36;96384.69;5420889;26;19999;-79
2024/04/15 00:27:07;;;;;;;3.50;2.28;;;;;;;16.36;65.39;96375.63;5419612;26;20003;-79
2024/04/15 00:29:39;;;;;;;4.50;2.45;;;;;;;16.32;66.02;96373.66;5418214;26;20366;-79
2024/04/15 00:32:06;;;;;;;2.50;2.30;;;;;;;16.28;65.80;96375.94;5408558;26;20350;-79
2024/04/15 00:34:35;;;;;;;2.58;2.38;;;;;;;16.27;65.82;96369.88;5415863;26;20019;-79
2024/04/15 00:37:02;;;;;;;5.85;3.03;;;;;;;16.30;65.85;96367.81;5418885;26;20011;-79
2024/04/15 00:39:32;;;;;;;4.57;3.60;;;;;;;16.30;65.54;96371.25;5419147;26;19999;-79
2024/04/15 00:41:59;;;;;;;4.25;3.85;;;;;;;16.31;65.53;96380.75;5419251;26;20003;-79
2024/04/15 00:44:33;;;;;;;6.25;4.03;;;;;;;16.34;65.51;96382.13;5419305;26;19999;-79
2024/04/15 00:47:03;;;;;;;7.90;3.85;;;;;;;16.35;65.40;96379.25;5419181;26;20003;-79
2024/04/15 00:49:34;;;;;;;4.97;3.58;;;;;;;16.36;65.24;96373.00;5419653;26;20011;-79
2024/04/15 00:52:03;;;;;;;5.43;3.75;;;;;;;16.35;65.57;96373.19;5441058;26;19996;-79
2024/04/15 00:54:34;;;;;;;5.22;4.00;;;;;;;16.34;65.50;96374.25;5439531;26;20003;-79
2024/04/15 00:57:01;;;;;;;3.95;3.45;;;;;;;16.31;65.36;96375.50;5419677;26;20000;-79
2024/04/15 00:59:32;;;;;;;4.00;3.08;;;;;;;16.28;65.55;96375.94;5419868;26;20015;-79
2024/04/15 01:01:59;;;;;;;5.53;3.03;;;;;;;16.19;65.97;96361.47;5419696;26;20011;-79
2024/04/15 01:04:31;;;;;;;4.13;3.03;;;;;;;16.08;66.56;96359.59;5420984;26;20007;-79
2024/04/15 01:06:58;;;;;;;4.05;2.95;;;;;;;16.01;66.56;96386.78;5418452;26;20036;-79
2024/04/15 01:09:27;;;;;;;3.78;2.80;;;;;;;15.95;67.00;96413.97;5418108;26;20032;-79
2024/04/15 01:11:54;;;;;;;6.88;3.75;;;;;;;15.94;67.37;96404.50;5418871;26;20014;-79
2024/04/15 01:14:24;;;;;;;6.18;4.45;;;;;;;15.98;67.22;96402.22;5419350;26;20073;-79
2024/04/15 01:16:50;;;;;;;5.28;3.55;;;;;;;16.01;67.06;96386.00;5418725;26;20010;-79
2024/04/15 01:19:20;;;;;;;5.63;3.72;;;;;;;16.05;67.02;96382.69;5418499;26;20004;-79
2024/04/15 01:21:49;;;;;;;5.45;3.75;;;;;;;16.11;66.73;96367.03;5418409;26;20000;-79
2024/04/15 01:24:21;;;;;;;4.63;3.38;;;;;;;16.17;66.74;96381.94;5418119;26;20003;-79
2024/04/15 01:26:48;;;;;;;5.25;3.97;;;;;;;16.21;66.03;96370.75;5418824;26;19999;-79
2024/04/15 01:29:17;;;;;;;3.90;3.50;;;;;;;16.23;66.09;96362.66;5418984;26;20006;-79
2024/04/15 01:31:44;;;;;;;7.03;3.75;;;;;;;16.24;66.02;96374.75;5418729;26;19999;-79
2024/04/15 01:34:13;;;;;;;6.80;3.38;;;;;;;16.22;66.56;96371.53;5417979;26;20012;-79
2024/04/15 01:36:40;;;;;;;4.30;2.78;;;;;;;16.19;66.29;96366.75;5418494;26;20068;-79
2024/04/15 01:39:10;;;;;;;3.70;3.00;;;;;;;16.14;66.56;96369.25;5418664;26;20462;-79
2024/04/15 01:41:39;;;;;;;4.38;3.60;;;;;;;16.10;66.64;96368.09;5418396;26;20032;-79
2024/04/15 01:44:08;;;;;;;3.53;2.78;;;;;;;16.04;66.48;96364.50;5418622;26;19999;-79
2024/04/15 01:46:35;;;;;;;3.22;2.88;;;;;;;16.00;66.76;96374.66;5417957;26;20011;-79
2024/04/15 01:49:05;;;;;;;5.18;2.75;;;;;;;15.97;66.78;96380.38;5418082;26;20018;-78
2024/04/15 01:51:31;;;;;;;7.60;3.50;;;;;;;15.95;66.89;96387.66;5458421;20;20006;-77
2024/04/15 01:54:01;;;;;;;4.40;2.70;;;;;;;15.97;66.94;96387.47;5453616;26;20003;-77
2024/04/15 01:56:27;;;;;;;5.22;3.17;;;;;;;15.96;66.86;96365.63;5453768;26;20013;-77
2024/04/15 01:58:59;;;;;;;4.90;3.22;;;;;;;15.96;67.12;96373.50;5453554;26;20010;-77
2024/04/15 02:01:26;;;;;;;3.95;3.42;;;;;;;15.94;67.20;96357.16;5454307;26;20127;-77
2024/04/15 02:03:57;;;;;;;3.45;2.83;;;;;;;15.95;67.22;96340.31;5453911;26;20009;-77
2024/04/15 02:06:24;;;;;;;5.88;3.30;;;;;;;15.97;67.14;96348.81;5454065;26;19998;-77
2024/04/15 02:08:53;;;;;;;3.72;3.05;;;;;;;16.01;67.22;96343.91;5453345;26;19999;-77
2024/04/15 02:11:20;;;;;;;3.45;3.15;;;;;;;16.05;66.84;96334.53;5453539;26;20002;-77
2024/04/15 02:13:49;;;;;;;7.43;3.53;;;;;;;16.08;66.90;96334.09;5452846;26;20041;-77
2024/04/15 02:16:18;;;;;;;3.70;3.20;;;;;;;16.12;66.60;96339.72;5452552;26;20010;-77
2024/04/15 02:18:48;;;;;;;5.07;3.13;;;;;;;16.13;66.57;96342.09;5453008;26;20075;-77
2024/04/15 02:21:15;;;;;;;6.22;3.17;;;;;;;16.17;66.31;96350.38;5456403;26;20025;-77
2024/04/15 02:23:44;;;;;;;2.95;2.55;;;;;;;16.21;66.33;96327.84;5469702;26;20014;-77
2024/04/15 02:26:11;;;;;;;3.67;2.83;;;;;;;16.27;65.89;96337.47;5467064;26;19998;-77
2024/04/15 02:28:40;;;;;;;4.65;2.47;;;;;;;16.32;65.24;96340.25;5454105;26;20014;-77
2024/04/15 02:31:07;;;;;;;3.33;3.03;;;;;;;16.34;65.12;96330.28;5453134;26;19998;-77
2024/04/15 02:33:39;;;;;;;3.67;2.70;;;;;;;16.37;64.66;96326.41;5453009;26;20048;-77
2024/04/15 02:36:06;;;;;;;3.10;2.38;;;;;;;16.39;64.19;96325.16;5455560;26;20048;-77
2024/04/15 02:38:35;;;;;;;3.30;2.70;;;;;;;16.41;64.08;96317.03;5468414;26;20002;-77
2024/04/15 02:41:03;;;;;;;3.08;2.65;;;;;;;16.42;63.71;96301.03;5468517;26;19995;-77
2024/04/15 02:43:32;;;;;;;3.22;2.80;;;;;;;16.44;63.70;96306.88;5467163;26;19995;-77
2024/04/15 02:45:59;;;;;;;5.85;2.60;;;;;;;16.46;63.43;96304.81;5453880;26;20014;-77
2024/04/15 02:48:28;;;;;;;3.35;2.25;;;;;;;16.48;63.26;96308.00;5452721;26;20367;-77
2024/04/15 02:50:59;;;;;;;2.95;2.63;;;;;;;16.52;63.24;96312.81;5452466;26;20316;-77
2024/04/15 02:53:31;;;;;;;5.20;2.78;;;;;;;16.54;63.04;96316.03;5452740;26;20049;-77
2024/04/15 02:55:58;;;;;;;6.25;2.72;;;;;;;16.54;63.11;96311.56;5452099;26;20030;-77
2024/04/15 02:58:27;;;;;;;4.35;2.63;;;;;;;16.56;62.88;96311.34;5452780;26;19999;-77
2024/04/15 03:00:56;;;;;;;4.18;2.75;;;;;;;16.59;62.52;96310.88;5452639;26;20055;-77
2024/04/15 03:03:25;;;;;;;3.70;2.47;;;;;;;16.60;62.64;96317.75;5452554;26;20399;-77
2024/04/15 03:05:53;;;;;;;2.88;2.58;;;;;;;16.61;62.50;96312.25;5451904;26;20346;-77
2024/04/15 03:08:25;;;;;;;5.50;2.72;;;;;;;16.62;62.17;96313.88;5452703;26;19999;-77
2024/04/15 03:10:51;;;;;;;2.72;2.45;;;;;;;16.63;62.13;96309.41;5452263;26;20441;-77
2024/04/15 03:13:21;;;;;;;5.00;2.75;;;;;;;16.63;61.92;96304.13;5452756;26;20014;-77
2024/04/15 03:15:53;;;;;;;3.72;2.50;;;;;;;16.61;61.56;96298.28;5452486;26;20026;-77
2024/04/15 03:18:22;;;;;;;4.57;2.42;;;;;;;16.60;61.75;96294.88;5452571;26;20010;-77
2024/04/15 03:20:49;;;;;;;7.25;2.40;;;;;;;16.58;61.64;96280.31;5452646;26;20014;-77
2024/04/15 03:23:18;;;;;;;3.90;3.00;;;;;;;16.57;61.42;96276.06;5452350;26;20025;-77
2024/04/15 03:25:47;;;;;;;4.53;2.63;;;;;;;16.56;61.59;96283.19;5451755;26;20001;-77
2024/04/15 03:28:17;;;;;;;4.25;2.53;;;;;;;16.57;61.16;96278.69;5452319;26;20014;-77
2024/04/15 03:30:43;;;;;;;3.90;2.60;;;;;;;16.56;60.75;96277.13;5451706;26;20002;-77
2024/04/15 03:33:13;;;;;;;3.97;2.33;;;;;;;16.54;61.36;96268.63;5451988;26;19999;-77
2024/04/15 03:35:39;;;;;;;6.35;2.53;;;;;;;16.52;61.21;96260.97;5451275;26;19999;-77
2024/04/15 03:38:09;;;;;;;3.38;2.55;;;;;;;16.51;61.18;96262.00;5452018;26;20003;-77
2024/04/15 03:40:38;;;;;;;3.83;3.03;;;;;;;16.50;61.19;96273.53;5451895;26;20006;-77
2024/04/15 03:43:10;;;;;;;5.97;2.95;;;;;;;16.46;61.08;96283.75;5451941;26;19999;-77
2024/04/15 03:45:37;;;;;;;5.00;2.50;;;;;;;16.43;61.19;96286.03;5451715;26;20331;-77
2024/04/15 03:48:07;;;;;;;5.47;3.10;;;;;;;16.39;61.06;96275.13;5451652;26;20003;-77
2024/04/15 03:50:34;;;;;;;6.00;2.55;;;;;;;16.36;60.70;96280.06;5451202;26;20071;-77
2024/04/15 03:53:03;;;;;;;6.60;2.75;;;;;;;16.34;60.85;96253.16;5451403;26;19999;-77
2024/04/15 03:55:30;;;;;;;3.83;2.33;;;;;;;16.31;60.68;96243.06;5452998;26;20049;-78
2024/04/15 03:57:59;;;;;;;4.35;2.28;;;;;;;16.27;60.39;96240.09;5454827;26;20003;-77
2024/04/15 04:00:30;;;;;;;3.97;2.15;;;;;;;16.23;60.12;96263.44;5453937;26;20074;-77
2024/04/15 04:02:59;;;;;;;7.95;3.45;;;;;;;16.20;60.06;96257.81;5453464;26;20011;-77
2024/04/15 04:05:26;;;;;;;3.28;2.33;;;;;;;16.18;59.91;96278.28;5451389;26;19999;-77
2024/04/15 04:07:55;;;;;;;5.50;2.55;;;;;;;16.15;59.68;96273.47;5451690;26;20075;-77
2024/04/15 04:10:22;;;;;;;6.05;2.25;;;;;;;16.12;59.75;96260.78;5450929;26;19999;-77
2024/04/15 04:12:52;;;;;;;5.88;2.30;;;;;;;16.08;59.56;96254.38;5448956;26;20010;-77
2024/04/15 04:15:18;;;;;;;3.88;2.28;;;;;;;16.07;59.64;96248.31;5450939;26;20071;-78
2024/04/15 04:17:50;;;;;;;3.28;2.00;;;;;;;16.04;59.35;96246.91;5451528;26;20002;-76
2024/04/15 04:20:17;;;;;;;3.05;2.22;;;;;;;16.03;59.18;96241.88;5463144;26;20003;-78
2024/04/15 04:22:46;;;;;;;3.45;2.03;;;;;;;15.99;59.24;96236.25;5468560;26;19999;-78
2024/04/15 04:25:13;;;;;;;3.60;2.00;;;;;;;15.97;59.22;96219.09;5466024;26;20010;-79
2024/04/15 04:27:43;;;;;;;2.15;1.95;;;;;;;15.97;59.08;96233.06;5463419;26;20002;-77
2024/04/15 04:30:10;;;;;;;3.92;1.85;;;;;;;15.99;59.30;96244.16;5438605;26;20011;-77
2024/04/15 04:32:40;;;;;;;3.00;1.80;;;;;;;15.99;59.21;96246.78;5466251;26;19999;-78
2024/04/15 04:35:09;;;;;;;4.70;2.20;;;;;;;16.00;59.16;96258.09;5451191;26;20007;-76
2024/04/15 04:37:39;;;;;;;7.93;2.40;;;;;;;16.00;59.21;96253.63;5415150;26;20049;-77
2024/04/15 04:40:11;;;;;;;4.13;2.42;;;;;;;16.01;59.72;96249.19;5433221;26;20002;-77
2024/04/15 04:42:42;;;;;;;3.78;2.05;;;;;;;16.01;59.92;96250.00;5450386;26;20011;-75
2024/04/15 04:45:11;;;;;;;2.88;1.95;;;;;;;16.03;59.66;96257.66;5451202;26;20474;-76
2024/04/15 04:47:38;;;;;;;2.67;2.30;;;;;;;16.02;59.68;96266.56;5454425;26;20002;-76
2024/04/15 04:50:07;;;;;;;6.20;2.17;;;;;;;16.01;60.11;96268.41;5453713;26;20530;-76
2024/04/15 04:52:37;;;;;;;5.65;2.35;;;;;;;16.00;60.34;96272.03;5453836;26;20000;-76
2024/04/15 04:55:07;;;;;;;13.27;8.48;;;;;;;15.98;60.66;96282.03;5454308;26;20006;-76
2024/04/15 04:57:34;;;;;;;6.22;2.78;;;;;;;15.95;60.72;96287.72;5453285;26;20361;-76
2024/04/15 05:00:03;;;;;;;4.10;2.38;;;;;;;15.94;60.50;96283.50;5453268;26;20470;-76
2024/04/15 05:02:30;;;;;;;5.22;2.35;;;;;;;15.91;60.86;96265.50;5452321;26;20015;-75
2024/04/15 05:04:59;;;;;;;5.82;2.50;;;;;;;15.86;60.86;96268.81;5451927;26;20018;-75
2024/04/15 05:07:26;;;;;;;4.13;2.50;;;;;;;15.87;61.00;96266.97;5452089;26;20081;-74
2024/04/15 05:09:58;;;;;;;4.28;2.50;;;;;;;15.85;61.22;96264.59;5453862;26;19999;-75
2024/04/15 05:12:25;;;;;;;4.25;2.72;;;;;;;15.84;61.19;96262.16;5457937;26;20494;-76
2024/04/15 05:14:54;;;;;;;5.38;2.88;;;;;;;15.85;61.17;96266.38;5450320;26;20010;-75
2024/04/15 05:17:21;;;;;;;6.38;2.55;;;;;;;15.86;61.42;96271.44;5452635;26;20006;-75
2024/04/15 05:19:50;;;;;;;3.97;2.80;;;;;;;15.86;60.98;96279.31;5454181;26;20036;-75
2024/04/15 05:22:17;;;;;;;4.72;2.88;;;;;;;15.88;60.93;96280.94;5453474;26;20003;-76
2024/04/15 05:24:47;;;;;;;2.47;2.17;;;;;;;15.84;60.97;96278.75;5453518;26;20007;-75
2024/04/15 05:27:16;;;;;;;6.22;2.40;;;;;;;15.86;61.14;96273.28;5453398;26;20407;-75
2024/04/15 05:29:45;;;;;;;4.90;2.60;;;;;;;15.88;61.19;96276.47;5453610;26;19995;-76
2024/04/15 05:32:15;;;;;;;6.57;2.75;;;;;;;15.89;61.12;96267.56;5453767;26;20015;-76
2024/04/15 05:34:43;;;;;;;3.20;2.55;;;;;;;15.91;60.72;96281.28;5453766;26;19999;-76
2024/04/15 05:37:12;;;;;;;6.57;3.42;;;;;;;15.92;61.08;96282.91;5453710;26;20075;-76
2024/04/15 05:39:39;;;;;;;4.25;2.70;;;;;;;15.95;60.75;96286.91;5453919;26;19999;-75
2024/04/15 05:42:09;;;;;;;4.80;2.85;;;;;;;15.96;60.51;96284.06;5463463;26;20052;-76
2024/04/15 05:44:38;;;;;;;4.93;2.50;;;;;;;15.96;60.29;96284.06;5470016;26;20009;-76
2024/04/15 05:47:08;;;;;;;8.48;3.17;;;;;;;15.96;60.17;96280.63;5462692;26;20014;-76
2024/04/15 05:49:37;;;;;;;5.93;2.92;;;;;;;15.95;60.31;96271.13;5454508;26;19999;-76
2024/04/15 05:52:07;;;;;;;4.93;2.78;;;;;;;15.97;60.17;96284.88;5453432;26;20010;-76
2024/04/15 05:54:34;;;;;;;3.42;2.30;;;;;;;15.98;60.30;96282.03;5453610;26;20007;-75
2024/04/15 05:57:03;;;;;;;3.10;2.40;;;;;;;15.99;59.96;96272.28;5453234;26;20003;-76
2024/04/15 05:59:30;;;;;;;2.72;2.42;;;;;;;15.99;59.93;96267.81;5453671;26;20006;-75
2024/04/15 06:02:02;;;;;;;5.05;2.60;;;;;;;16.01;60.06;96281.56;5454061;26;20462;-76
2024/04/15 06:04:29;;;;;;;3.13;2.40;;;;;;;16.01;59.86;96271.03;5453730;26;20003;-76
2024/04/15 06:06:59;;;;;;;7.45;3.25;;;;;;;16.01;59.83;96281.56;5452978;26;19999;-76
2024/04/15 06:09:25;;;;;;;5.07;2.45;;;;;;;16.01;60.22;96284.19;5453726;26;20057;-76
2024/04/15 06:11:55;;;;;;;4.70;2.30;;;;;;;16.03;59.97;96281.34;5453326;26;20003;-76
2024/04/15 06:14:22;;;;;;;3.72;2.50;;;;;;;16.02;60.26;96277.88;5453427;26;19998;-76
2024/04/15 06:16:52;;;;;;;3.67;2.40;;;;;;;16.01;60.31;96264.97;5453017;26;20076;-75
2024/04/15 06:19:21;;;;;;;3.83;2.90;;;;;;;15.98;60.57;96276.75;5453154;26;20013;-76
2024/04/15 06:21:51;;;;;;;3.83;2.65;;;;;;;15.98;60.85;96284.66;5453419;26;19999;-76
2024/04/15 06:24:18;;;;;;;3.00;2.33;;;;;;;15.98;60.85;96289.91;5452839;26;20002;-76
2024/04/15 06:26:48;;;;;;;5.97;2.30;;;;;;;15.98;60.63;96284.66;5452668;26;20341;-75
2024/04/15 06:29:15;;;;;;;5.68;2.65;;;;;;;15.98;61.01;96292.53;5452699;26;19999;-75
2024/04/15 06:31:45;;;;;;;4.40;2.60;;;;;;;15.98;60.95;96289.91;5452605;26;19998;-76
2024/04/15 06:34:11;;;;;;;4.07;2.70;;;;;;;15.94;60.87;96286.13;5452586;26;19999;-76
2024/04/15 06:36:43;;;;;;;2.13;1.88;;;;;;;15.86;60.76;96284.59;5452163;26;20068;-75
2024/04/15 06:39:10;;;;;;;3.45;2.22;;;;;;;15.82;60.97;96288.69;5452724;26;20010;-76
2024/04/15 06:41:40;;;;;;;2.33;1.88;;;;;;;15.80;61.25;96301.25;5452492;26;19999;-76
2024/04/15 06:44:06;;;;;;;9.00;1.95;;;;;;;15.77;60.45;96300.91;5452202;26;20010;-76
2024/04/15 06:46:36;;;;;;;2.50;1.52;;;;;;;15.73;59.67;96305.00;5452657;26;20013;-75
2024/04/15 06:49:03;;;;;;;2.97;1.70;;;;;;;15.69;59.92;96304.59;5452809;26;19999;-75
2024/04/15 06:51:32;;;;;;;4.72;2.33;;;;;;;15.65;60.05;96316.59;5451972;26;19998;-76
2024/04/15 06:54:02;;;;;;;4.93;1.60;;;;;;;15.61;60.22;96324.13;5452384;26;20014;-75
2024/04/15 06:56:31;;;;;;;4.25;1.50;;;;;;;15.58;60.44;96334.28;5451825;26;20018;-76
2024/04/15 06:58:58;;;;;;;5.15;1.88;;;;;;;15.54;60.08;96309.44;5452317;26;20346;-76
2024/04/15 07:01:28;;;;;;;2.22;1.67;;;;;;;15.52;60.13;96307.03;5452134;26;20010;-76
2024/04/15 07:03:55;;;;;;;4.80;1.77;;;;;;;15.52;59.73;96293.06;5452149;26;20010;-76
2024/04/15 07:06:24;;;;;;;3.92;1.40;;;;;;;15.51;60.01;96286.22;5451926;26;20048;-76
2024/04/15 07:08:52;;;;;;;3.95;1.40;;;;;;;15.49;59.64;96294.31;5451303;26;20009;-75
2024/04/15 07:11:24;;;;;;;2.88;1.40;;;;;;;15.49;59.70;96294.31;5452369;26;19999;-76
2024/04/15 07:13:50;;;;;;;3.63;1.60;;;;;;;15.48;59.22;96300.63;5452125;26;20014;-76
2024/04/15 07:16:20;;;;;;;3.58;1.42;;;;;;;15.44;59.18;96302.06;5451418;26;20458;-76
2024/04/15 07:18:47;;;;;;;3.53;1.58;;;;;;;15.40;59.59;96309.59;5451944;26;19999;-75
2024/04/15 07:21:16;;;;;;;8.65;1.90;;;;;;;15.38;59.76;96308.22;5468786;26;20014;-76
2024/04/15 07:23:45;;;;;;;3.72;1.60;;;;;;;15.35;59.86;96300.75;5469176;26;20006;-76
2024/04/15 07:26:15;;;;;;;2.03;1.50;;;;;;;15.33;60.34;96303.59;5468006;26;19995;-76
2024/04/15 07:28:44;;;;;;;3.80;1.73;;;;;;;15.34;60.48;96296.53;5454608;26;20003;-76
2024/04/15 07:31:13;;;;;;;2.33;1.60;;;;;;;15.35;60.45;96300.75;5452091;26;20002;-75
2024/04/15 07:33:40;;;;;;;3.78;1.50;;;;;;;15.33;60.03;96285.22;5452341;26;20010;-75
2024/04/15 07:36:10;;;;;;;2.80;1.52;;;;;;;15.31;60.14;96296.97;5451504;26;20006;-75
2024/04/15 07:38:36;;;;;;;6.60;1.90;;;;;;;15.29;59.95;96302.44;5451686;26;20014;-76
2024/04/15 07:41:06;;;;;;;4.65;2.20;;;;;;;15.29;59.47;96301.63;5451396;26;20010;-75
2024/04/15 07:43:32;;;;;;;12.18;2.03;;;;;;;15.28;59.78;96310.53;5451906;26;20048;-75
2024/04/15 07:46:05;;;;;;;3.70;1.70;;;;;;;15.27;59.35;96307.09;5451139;26;20010;-76
2024/04/15 07:48:32;;;;;;;9.25;2.05;;;;;;;15.23;59.20;96309.34;5451646;26;20360;-76
2024/04/15 07:51:01;;;;;;;2.53;1.98;;;;;;;15.21;59.22;96316.66;5451376;26;20010;-75
2024/04/15 07:53:29;;;;;;;2.65;1.75;;;;;;;15.23;59.32;96321.69;5451783;26;20327;-75
2024/04/15 07:55:58;;;;;;;2.85;1.80;;;;;;;15.24;59.62;96324.13;5450979;26;20003;-75
2024/04/15 07:58:25;;;;;;;4.65;1.40;;;;;;;15.25;59.29;96324.91;5452016;26;20010;-75
2024/04/15 08:00:55;;;;;;;3.20;1.80;;;;;;;15.27;59.04;96320.25;5451214;26;20031;-76
2024/04/15 08:03:24;;;;;;;3.50;1.88;;;;;;;15.28;58.58;96313.16;5451612;26;20011;-76
2024/04/15 08:05:54;;;;;;;5.47;1.80;;;;;;;15.24;58.30;96318.84;5451046;26;20043;-75
2024/04/15 08:08:21;;;;;;;6.70;2.35;;;;;;;15.22;58.59;96315.66;5451849;26;20427;-75
2024/04/15 08:10:50;;;;;;;3.00;1.88;;;;;;;15.22;58.28;96307.75;5451566;26;20014;-75
2024/04/15 08:13:17;;;;;;;4.40;2.05;;;;;;;15.22;58.32;96305.13;5451580;26;20003;-75
2024/04/15 08:15:48;;;;;;;4.00;2.25;;;;;;;15.23;58.45;96301.47;5451366;26;20345;-76
2024/04/15 08:18:15;;;;;;;5.38;2.03;;;;;;;15.24;57.83;96316.22;5451250;26;19999;-75
2024/04/15 08:20:55;;;;;;;4.85;2.10;;;;;;;15.26;58.28;96305.47;5453931;26;20014;-76
2024/04/15 08:23:22;;;;;;;4.60;2.85;;;;;;;15.29;58.30;96305.06;5455383;26;19999;-76
2024/04/15 08:25:54;;;;;;;4.13;1.65;;;;;;;15.33;57.97;96302.81;5454533;26;19999;-76
2024/04/15 08:28:22;;;;;;;2.53;1.90;;;;;;;15.42;58.43;96298.88;5455433;26;20009;-76
2024/04/15 08:30:52;;;;;;;3.45;2.00;;;;;;;15.49;58.09;96310.09;5454951;26;20513;-75
2024/04/15 08:33:18;;;;;;;3.60;1.95;;;;;;;15.58;57.70;96298.25;5454817;26;20474;-75
2024/04/15 08:35:51;;;;;;;2.90;2.00;;;;;;;15.64;57.53;96294.75;5454880;26;20481;-76
2024/04/15 08:38:17;;;;;;;2.67;1.80;;;;;;;15.67;57.71;96298.75;5455218;26;19999;-76
2024/04/15 08:40:54;;;;;;;5.72;3.15;;;;;;;15.73;57.76;96292.66;5455939;26;20331;-76
2024/04/15 08:43:22;;;;;;;4.97;2.90;;;;;;;15.81;57.21;96286.31;5454878;26;20003;-75
2024/04/15 08:45:55;;;;;;;4.28;2.25;;;;;;;15.88;57.53;96292.25;5455191;26;19999;-75
2024/04/15 08:48:25;;;;;;;3.33;2.00;;;;;;;15.90;57.70;96284.97;5454924;26;20038;-76
2024/04/15 08:50:59;;;;;;;6.00;3.28;;;;;;;15.90;58.00;96287.59;5455337;26;20462;-76
2024/04/15 08:53:28;;;;;;;5.43;2.22;;;;;;;15.87;57.79;96290.66;5455006;26;20006;-76
2024/04/15 08:55:57;;;;;;;4.22;2.17;;;;;;;15.85;57.77;96271.66;5454548;26;19999;-75
2024/04/15 08:58:25;;;;;;;5.07;3.10;;;;;;;15.85;57.79;96266.38;5454626;26;20011;-75
2024/04/15 09:00:56;;;;;;;4.05;2.90;;;;;;;15.84;57.92;96255.06;5454754;26;20003;-75
2024/04/15 09:03:24;;;;;;;5.22;2.70;;;;;;;15.85;57.97;96256.69;5464771;26;20010;-76
2024/04/15 09:05:56;;;;;;;5.45;3.55;;;;;;;15.91;58.31;96249.72;5469247;26;20018;-76
2024/04/15 09:08:23;;;;;;;5.65;3.30;;;;;;;15.94;58.34;96228.25;5462504;26;19998;-75
2024/04/15 09:10:53;;;;;;;5.00;2.83;;;;;;;15.98;58.43;96218.06;5455141;26;20007;-76
2024/04/15 09:13:19;;;;;;;7.65;3.53;;;;;;;16.03;58.36;96205.06;5454851;26;20010;-76
2024/04/15 09:15:49;;;;;;;3.78;3.35;;;;;;;16.06;58.07;96217.75;5453908;26;20481;-76
2024/04/15 09:18:18;;;;;;;7.53;3.25;;;;;;;16.08;57.88;96202.53;5454421;26;20481;-75
2024/04/15 09:20:47;;;;;;;5.15;3.15;;;;;;;16.10;58.21;96186.53;5454460;26;20009;-76
2024/04/15 09:23:29;;;;;;;6.22;2.88;;;;;;;16.13;58.35;96189.50;5453775;26;20450;-75
2024/04/15 09:25:58;;;;;;;6.15;3.53;;;;;;;16.17;58.38;96172.22;5453561;26;19995;-76
2024/04/15 09:28:25;;;;;;;6.95;3.28;;;;;;;16.23;58.29;96173.16;5454445;26;20003;-76
2024/04/15 09:30:55;;;;;;;4.95;2.63;;;;;;;16.27;58.04;96174.31;5453762;26;20503;-75
2024/04/15 09:33:25;;;;;;;8.27;3.35;;;;;;;16.30;58.11;96184.38;5454419;26;20003;-76
2024/04/15 09:35:55;;;;;;;5.47;3.13;;;;;;;16.33;57.45;96186.53;5453771;26;19998;-75
2024/04/15 09:38:23;;;;;;;5.18;2.90;;;;;;;16.33;57.64;96183.91;5453980;26;20003;-76
2024/04/15 09:40:55;;;;;;;5.10;3.17;;;;;;;16.36;57.35;96186.09;5454481;26;19999;-75
2024/04/15 09:43:23;;;;;;;3.25;2.47;;;;;;;16.40;57.79;96200.41;5454056;26;20352;-76
2024/04/15 09:45:53;;;;;;;4.60;3.45;;;;;;;16.40;57.47;96204.88;5453482;26;20544;-76
2024/04/15 09:48:23;;;;;;;6.35;3.78;;;;;;;16.35;57.17;96213.44;5454799;26;20014;-76
2024/04/15 09:50:55;;;;;;;4.50;2.92;;;;;;;16.27;56.84;96221.69;5454256;26;20075;-76
2024/04/15 09:53:30;;;;;;;3.17;2.72;;;;;;;16.17;56.79;96213.53;5454014;26;20003;-75
2024/04/15 09:56:05;;;;;;;6.30;3.55;;;;;;;16.08;57.36;96213.06;5453665;26;20002;-76
2024/04/15 09:58:37;;;;;;;3.92;2.70;;;;;;;16.09;57.77;96211.22;5453944;26;20006;-76
2024/04/15 10:01:08;;;;;;;3.97;3.20;;;;;;;16.15;57.42;96212.97;5454220;26;19999;-75
2024/04/15 10:03:37;;;;;;;7.15;3.72;;;;;;;16.20;57.79;96220.97;5453903;26;20014;-75
2024/04/15 10:06:07;;;;;;;5.93;3.33;;;;;;;16.26;57.45;96210.34;5453711;26;20047;-76
2024/04/15 10:08:34;;;;;;;5.10;2.97;;;;;;;16.40;57.24;96202.25;5453796;26;20014;-76
2024/04/15 10:11:09;;;;;;;5.78;3.05;;;;;;;16.66;56.47;96188.63;5454005;26;20003;-76
2024/04/15 10:13:39;;;;;;;;;;;;;;;16.96;56.35;96192.94;5455313;26;19998;-76
2024/04/15 10:16:18;;;;;;;4.75;3.05;;;;;;;17.23;54.89;96187.16;5454218;26;19931;-76
2024/04/15 10:19:05;;;;;;;4.65;3.08;;;;;;;17.48;54.57;96178.94;5454273;26;20010;-74
2024/04/15 10:21:32;;;;;;;4.25;3.50;;;;;;;17.65;54.60;96179.78;5454482;26;20006;-74
2024/04/15 10:24:05;;;;;;;5.75;3.42;;;;;;;17.76;54.12;96190.53;5454433;26;20002;-74
2024/04/15 10:26:35;;;;;;;3.90;3.15;;;;;;;17.83;52.98;96185.94;5454030;26;20469;-74
2024/04/15 10:29:14;;;;;;;7.60;2.80;;;;;;;17.91;53.24;96185.53;5453816;26;20442;-74
2024/04/15 10:31:41;;;;;;;5.25;3.40;;;;;;;18.01;53.53;96172.50;5453205;26;19999;-74
2024/04/15 10:34:16;;;;;;;3.05;2.63;;;;;;;18.12;52.46;96165.53;5453785;26;19999;-74
2024/04/15 10:36:48;;;;;;;3.90;2.70;;;;;;;18.21;51.69;96156.19;5453333;26;20010;-74
2024/04/15 10:39:18;;;;;;;6.13;2.88;;;;;;;18.30;52.48;96152.13;5465246;26;20075;-74
2024/04/15 10:41:48;;;;;;;3.72;3.00;;;;;;;18.47;51.81;96144.16;5457824;26;20010;-74
2024/04/15 10:44:17;;;;;;;6.00;2.80;;;;;;;18.59;51.65;96132.72;5454217;26;19999;-74
2024/04/15 10:46:45;;;;;;;4.35;2.80;;;;;;;18.64;51.43;96130.13;5453039;26;20030;-74
2024/04/15 10:49:16;;;;;;;5.05;3.28;;;;;;;18.64;50.83;96127.50;5454068;26;20075;-74
2024/04/15 10:51:43;;;;;;;4.78;2.40;;;;;;;18.62;50.48;96124.28;5453474;26;20048;-74
2024/04/15 10:54:13;;;;;;;5.93;3.00;;;;;;;18.63;50.70;96120.59;5454045;26;19999;-75
2024/04/15 10:56:40;;;;;;;3.83;2.50;;;;;;;18.60;50.34;96110.53;5453891;26;20366;-75
2024/04/15 10:59:15;;;;;;;7.53;2.85;;;;;;;18.59;50.03;96103.66;5453637;26;19998;-74
2024/04/15 11:01:43;;;;;;;3.47;2.40;;;;;;;18.66;50.96;96109.56;5454364;26;20067;-75
2024/04/15 11:04:13;;;;;;;3.35;2.50;;;;;;;18.68;49.99;96104.81;5453983;26;20002;-75
2024/04/15 11:06:41;;;;;;;3.92;2.15;;;;;;;18.67;50.00;96105.84;5453433;26;20372;-74
2024/04/15 11:09:11;;;;;;;5.60;2.40;;;;;;;18.63;50.03;96105.56;5453699;26;20014;-74
2024/04/15 11:11:39;;;;;;;10.60;2.20;;;;;;;18.71;50.05;96096.41;5453506;26;20341;-75
2024/04/15 11:14:14;;;;;;;7.45;4.32;;;;;;;18.82;49.43;96098.13;5453854;26;20048;-74
2024/04/15 11:16:44;;;;;;;7.53;2.30;;;;;;;18.85;48.65;96097.66;5452555;26;20002;-75
2024/04/15 11:19:16;;;;;;;5.07;2.38;;;;;;;18.83;49.57;96093.69;5453634;26;20026;-75
2024/04/15 11:21:42;;;;;;;6.63;2.83;;;;;;;18.82;48.83;96090.22;5453120;26;20007;-75
2024/04/15 11:24:12;;;;;;;5.97;2.05;;;;;;;18.70;48.43;96094.81;5453397;26;20466;-74
2024/04/15 11:26:42;;;;;;;4.85;1.90;;;;;;;18.55;48.72;96086.69;5453090;26;19999;-75
2024/04/15 11:29:16;;;;;;;4.00;1.52;;;;;;;18.48;49.57;96077.09;5452697;26;20496;-75
2024/04/15 11:31:43;;;;;;;7.00;2.00;;;;;;;18.45;49.16;96064.38;5452917;26;20009;-74
2024/04/15 11:34:13;;;;;;;3.60;1.98;;;;;;;18.42;49.49;96072.78;5452581;26;19999;-74
2024/04/15 11:36:44;;;;;;;3.00;2.30;;;;;;;18.41;49.82;96068.56;5452602;26;20036;-74
2024/04/15 11:39:13;;;;;;;2.80;2.22;;;;;;;18.37;49.40;96064.03;5453173;26;20010;-75
2024/04/15 11:41:40;;;;;;;7.05;2.75;;;;;;;18.29;49.96;96046.75;5452833;26;20003;-75
2024/04/15 11:44:10;;;;;;;4.25;2.25;;;;;;;18.21;50.07;96036.59;5452896;26;19999;-75